Time;durP1;ratioP1;P1;durP2;ratioP2;P2;SDS_P1;SDS_P2;PMS_P1;PMS_P2;Temp;Humidity;BMP_temperature;BMP_pressure;BME280_temperature;BME280_humidity;BME280_pressure;Samples;Min_cycle;Max_cycle;Signal;HPM_P1;HPM_P2
2023/09/19 00:04:14;;;;;;;17.20;9.07;;;;;;;21.56;73.73;100935.13;31487856;28;20051;-78
2023/09/19 00:19:17;;;;;;;16.55;9.15;;;;;;;21.63;74.36;100932.00;31488043;28;20429;-80
2023/09/19 00:34:20;;;;;;;18.88;10.77;;;;;;;21.99;74.02;100923.34;31492443;28;20056;-79
2023/09/19 00:49:22;;;;;;;42.27;14.83;;;;;;;22.20;79.94;100909.66;31484770;28;20135;-79
2023/09/19 01:04:25;;;;;;;42.28;16.02;;;;;;;22.33;84.73;100890.72;31480855;28;20117;-80
2023/09/19 01:20:12;;;;;;;57.13;20.02;;;;;;;22.39;87.78;100888.81;31479500;28;20482;-79
2023/09/19 01:35:14;;;;;;;47.72;20.80;;;;;;;22.44;86.93;100901.94;31480885;28;20479;-80
2023/09/19 01:50:40;;;;;;;40.53;14.73;;;;;;;22.40;95.42;100879.28;31476381;28;20083;-79
2023/09/19 02:05:53;;;;;;;60.88;20.05;;;;;;;22.10;100.00;100873.81;31479179;28;20478;-78
2023/09/19 02:20:56;;;;;;;60.17;19.48;;;;;;;21.89;96.73;100869.41;31474045;28;20053;-79
2023/09/19 02:35:58;;;;;;;53.53;18.85;;;;;;;21.75;94.29;100872.94;31487857;28;20057;-78
2023/09/19 02:51:01;;;;;;;37.75;15.77;;;;;;;21.58;87.63;100882.94;31488181;28;20048;-80
2023/09/19 03:06:03;;;;;;;33.40;14.73;;;;;;;21.44;84.48;100893.50;31488256;28;20080;-79
2023/09/19 03:21:06;;;;;;;32.35;14.25;;;;;;;21.29;86.87;100889.94;31496490;28;20045;-80
2023/09/19 03:36:09;;;;;;;28.70;13.68;;;;;;;21.26;84.05;100901.19;31490755;28;20045;-79
2023/09/19 03:51:11;;;;;;;21.10;11.55;;;;;;;21.23;85.45;100902.13;31481171;28;20048;-80
2023/09/19 04:06:15;;;;;;;28.90;13.52;;;;;;;21.34;85.17;100905.88;31492952;28;20056;-80
2023/09/19 04:21:19;;;;;;;22.17;9.93;;;;;;;21.74;78.83;100913.63;31490014;28;20063;-80
2023/09/19 04:36:22;;;;;;;22.47;9.70;;;;;;;22.08;77.10;100923.28;31488486;28;20502;-80
2023/09/19 04:51:36;;;;;;;21.58;10.63;;;;;;;22.65;74.79;100911.06;31477819;28;20040;-81
2023/09/19 05:06:38;;;;;;;17.98;9.90;;;;;;;22.98;70.75;100914.28;31469033;28;20448;-88
2023/09/19 05:21:40;;;;;;;23.08;11.30;;;;;;;23.61;68.08;100916.53;31509078;28;20049;-79
2023/09/19 05:36:43;;;;;;;18.38;10.25;;;;;;;24.42;65.49;100916.19;31471229;28;20536;-82
2023/09/19 05:51:45;;;;;;;20.38;10.75;;;;;;;25.59;61.97;100930.59;31473478;28;20140;-85
2023/09/19 06:06:48;;;;;;;18.23;9.70;;;;;;;27.15;58.54;100930.47;31471982;28;20048;-81
2023/09/19 06:21:50;;;;;;;;;;;;;;;28.34;53.16;100928.41;31493491;28;20045;-80
2023/09/19 06:36:52;;;;;;;20.20;10.23;;;;;;;29.12;53.24;100933.09;31485662;28;19942;-80
2023/09/19 06:51:55;;;;;;;16.13;9.60;;;;;;;30.77;50.60;100938.63;31480398;28;20456;-80
2023/09/19 07:06:57;;;;;;;16.88;8.10;;;;;;;31.95;47.38;100947.28;31484471;28;20060;-80
2023/09/19 07:22:02;;;;;;;10.10;5.30;;;;;;;32.63;42.93;100945.00;31488898;28;20417;-80
2023/09/19 07:37:04;;;;;;;8.35;5.88;;;;;;;32.86;42.04;100923.41;31492014;28;20060;-81
2023/09/19 07:52:07;;;;;;;10.23;4.82;;;;;;;33.35;40.04;100907.66;31485299;28;20088;-80
2023/09/19 08:07:09;;;;;;;7.30;4.40;;;;;;;33.96;38.57;100916.22;31482378;28;20417;-79
2023/09/19 08:22:11;;;;;;;6.32;4.15;;;;;;;33.88;37.40;100882.44;31480961;28;20127;-80
2023/09/19 08:37:13;;;;;;;4.88;3.33;;;;;;;33.84;35.27;100874.34;31477230;28;20080;-81
2023/09/19 08:52:22;;;;;;;4.68;3.80;;;;;;;34.71;34.99;100858.97;31477242;28;20059;-81
2023/09/19 09:07:25;;;;;;;19.80;11.32;;;;;;;35.09;34.21;100850.34;31482627;28;20048;-80
2023/09/19 09:22:27;;;;;;;6.10;4.00;;;;;;;35.82;33.18;100841.75;31475216;28;20052;-81
2023/09/19 09:37:30;;;;;;;8.63;5.13;;;;;;;35.38;33.88;100822.53;31465120;28;20052;-81
2023/09/19 09:52:44;;;;;;;8.85;4.85;;;;;;;36.09;32.77;100805.91;31515918;28;20138;-83
2023/09/19 10:07:50;;;;;;;6.47;4.45;;;;;;;35.70;31.87;100795.50;31519422;28;20048;-80
2023/09/19 10:22:57;;;;;;;9.75;5.63;;;;;;;36.78;32.22;100762.69;31510297;28;20511;-81
2023/09/19 10:38:01;;;;;;;11.18;5.22;;;;;;;36.44;31.48;100763.47;31498478;28;20060;-74
2023/09/19 10:53:08;;;;;;;7.25;4.03;;;;;;;36.52;30.91;100747.16;31466960;28;20048;-80
2023/09/19 11:08:12;;;;;;;9.40;4.10;;;;;;;37.01;30.77;100734.03;31468358;28;20437;-75
2023/09/19 11:23:16;;;;;;;6.72;3.30;;;;;;;37.33;29.90;100716.72;31466944;28;20099;-82
2023/09/19 11:38:47;;;;;;;5.03;2.78;;;;;;;37.79;27.90;100696.09;31436156;28;2153117;-78
2023/09/19 11:53:53;;;;;;;3.88;2.95;;;;;;;36.67;29.32;100681.91;31488590;28;20165;-77
2023/09/19 12:08:57;;;;;;;5.70;3.03;;;;;;;33.71;31.35;100687.97;31543541;28;20052;-80
2023/09/19 12:24:04;;;;;;;5.18;3.20;;;;;;;32.17;32.22;100679.91;31526208;28;20497;-81
2023/09/19 12:39:09;;;;;;;5.82;3.88;;;;;;;31.84;32.99;100670.44;31515087;28;20047;-78
2023/09/19 12:54:11;;;;;;;6.88;3.47;;;;;;;31.07;33.48;100648.72;31503428;28;20501;-80
2023/09/19 13:09:14;;;;;;;4.88;3.25;;;;;;;31.03;33.97;100631.50;31507495;28;20059;-76
2023/09/19 13:24:25;;;;;;;4.25;3.40;;;;;;;30.80;33.84;100623.66;31512827;28;20425;-80
2023/09/19 13:39:27;;;;;;;13.03;6.53;;;;;;;30.72;34.40;100606.03;31504429;28;20114;-79
2023/09/19 13:54:34;;;;;;;7.25;3.90;;;;;;;30.63;34.54;100609.31;31513826;28;20414;-79
2023/09/19 14:09:37;;;;;;;8.15;4.07;;;;;;;30.48;34.89;100609.88;31523637;28;20048;-77
2023/09/19 14:24:40;;;;;;;6.75;3.45;;;;;;;30.29;34.87;100597.38;31531044;28;20055;-78
2023/09/19 14:39:45;;;;;;;5.95;3.97;;;;;;;30.16;35.05;100584.19;31540712;28;20061;-80
2023/09/19 14:54:50;;;;;;;4.80;3.85;;;;;;;29.88;35.33;100575.63;31506307;28;20048;-79
2023/09/19 15:09:52;;;;;;;8.70;4.68;;;;;;;29.71;36.02;100573.94;31482477;28;20127;-77
2023/09/19 15:24:56;;;;;;;;;;;;;;;29.50;36.66;100582.25;31498390;28;20056;-85
2023/09/19 15:39:58;;;;;;;;;;;;;;;29.17;36.54;100586.41;31487498;28;19928;-85
2023/09/19 15:55:03;;;;;;;5.25;3.75;;;;;;;28.87;37.13;100582.38;31494125;28;19920;-85
2023/09/19 16:10:05;;;;;;;11.27;4.50;;;;;;;28.49;37.33;100596.44;31518055;28;20102;-85
2023/09/19 16:25:11;;;;;;;10.00;4.47;;;;;;;28.17;38.59;100597.13;31487634;28;20048;-84
2023/09/19 16:40:13;;;;;;;9.95;7.15;;;;;;;27.84;39.44;100608.75;31492187;28;20091;-86
2023/09/19 16:55:16;;;;;;;13.03;5.70;;;;;;;27.40;40.97;100621.88;31496005;28;20494;-81
2023/09/19 17:10:24;;;;;;;7.47;4.50;;;;;;;26.90;42.04;100629.97;31500653;28;20056;-85
2023/09/19 17:25:34;;;;;;;13.43;4.47;;;;;;;26.57;42.37;100633.75;31487895;28;20075;-81
2023/09/19 17:40:42;;;;;;;7.50;4.47;;;;;;;26.28;42.47;100644.25;31496776;28;20060;-81
2023/09/19 17:55:46;;;;;;;6.93;4.25;;;;;;;26.05;42.05;100649.19;31495858;28;20083;-81
2023/09/19 18:10:48;;;;;;;6.00;4.38;;;;;;;25.89;42.64;100663.91;31512564;28;20055;-81
2023/09/19 18:25:58;;;;;;;8.70;4.67;;;;;;;25.65;42.57;100672.09;31529231;28;20040;-79
2023/09/19 18:41:00;;;;;;;9.00;3.83;;;;;;;25.42;42.56;100671.34;31515600;28;20067;-80
2023/09/19 18:56:07;;;;;;;7.57;4.13;;;;;;;25.44;42.54;100679.94;31524019;28;20055;-83
2023/09/19 19:11:14;;;;;;;10.70;6.07;;;;;;;25.42;43.18;100686.00;31499412;28;20440;-81
2023/09/19 19:26:16;;;;;;;20.27;13.13;;;;;;;25.26;44.05;100686.78;31485453;28;20414;-82
2023/09/19 19:41:19;;;;;;;14.03;7.90;;;;;;;25.03;45.01;100685.28;31477088;28;20103;-79
2023/09/19 19:56:22;;;;;;;10.05;6.40;;;;;;;24.82;45.60;100682.69;31487682;28;20151;-78
2023/09/19 20:11:28;;;;;;;15.30;7.80;;;;;;;24.76;46.55;100690.25;31493438;28;20151;-82
2023/09/19 20:26:34;;;;;;;8.85;6.43;;;;;;;24.63;46.95;100692.75;31477722;28;20049;-81
2023/09/19 20:41:36;;;;;;;11.27;7.10;;;;;;;24.49;46.95;100685.41;31499640;28;20068;-79
2023/09/19 20:56:39;;;;;;;11.02;6.82;;;;;;;24.48;47.31;100695.00;31484989;28;20456;-78
2023/09/19 21:11:41;;;;;;;16.35;8.70;;;;;;;24.31;47.08;100688.63;31478618;28;20127;-79
2023/09/19 21:26:45;;;;;;;20.75;10.15;;;;;;;24.07;47.54;100681.47;31446544;28;20139;-78
2023/09/19 21:41:47;;;;;;;18.85;9.20;;;;;;;23.89;47.76;100665.22;31459298;28;20048;-78
2023/09/19 21:56:49;;;;;;;22.05;11.73;;;;;;;23.72;48.05;100664.38;31473255;28;20059;-79
2023/09/19 22:11:51;;;;;;;21.58;11.55;;;;;;;23.42;49.93;100650.81;31467436;28;20549;-78
2023/09/19 22:26:53;;;;;;;17.48;12.13;;;;;;;23.14;52.32;100658.19;31468726;28;20128;-79
2023/09/19 22:42:11;;;;;;;25.23;13.63;;;;;;;22.74;53.96;100659.81;31467768;28;20407;-77
2023/09/19 22:57:13;;;;;;;23.40;15.23;;;;;;;22.41;54.42;100651.22;31465873;28;20040;-77
2023/09/19 23:12:19;;;;;;;26.42;17.00;;;;;;;22.27;55.11;100649.28;31462511;28;20060;-79
2023/09/19 23:27:24;;;;;;;25.58;17.90;;;;;;;22.26;55.81;100636.69;31455930;28;20064;-77
2023/09/19 23:42:28;;;;;;;29.77;17.60;;;;;;;22.49;56.00;100638.44;31460430;28;20048;-79
2023/09/19 23:57:33;;;;;;;26.47;14.67;;;;;;;22.31;57.11;100641.53;31489040;28;20044;-79
